createdAt,value
2023-01-09T00:00:28.274Z,3.48
2023-01-09T00:03:31.613Z,3.67
2023-01-09T00:06:36.584Z,3.46
2023-01-09T00:09:42.028Z,3.53
2023-01-09T00:12:45.582Z,3.50
2023-01-09T00:15:49.441Z,3.41
2023-01-09T00:18:53.370Z,3.44
2023-01-09T00:21:58.022Z,3.56
2023-01-09T00:25:01.385Z,3.44
2023-01-09T00:28:05.001Z,3.45
2023-01-09T00:31:09.912Z,3.41
2023-01-09T00:34:13.737Z,3.58
2023-01-09T00:37:18.407Z,3.39
2023-01-09T00:40:22.322Z,3.50
2023-01-09T00:43:31.440Z,3.56
2023-01-09T00:46:40.310Z,3.45
2023-01-09T00:49:44.530Z,3.38
2023-01-09T00:52:51.344Z,3.53
2023-01-09T00:55:58.053Z,3.34
2023-01-09T00:59:01.417Z,3.38
2023-01-09T01:02:04.719Z,3.41
2023-01-09T01:05:26.229Z,3.38
2023-01-09T01:08:33.787Z,3.40
2023-01-09T01:11:37.039Z,3.44
2023-01-09T01:14:40.554Z,3.28
2023-01-09T01:17:44.388Z,3.35
2023-01-09T01:20:47.635Z,3.34
2023-01-09T01:23:52.553Z,3.39
2023-01-09T01:26:56.043Z,3.30
2023-01-09T01:29:59.625Z,3.29
2023-01-09T01:33:02.856Z,3.37
2023-01-09T01:36:09.240Z,3.32
2023-01-09T01:39:14.481Z,3.26
2023-01-09T01:42:18.190Z,3.32
2023-01-09T01:45:25.848Z,2.80
2023-01-09T01:48:31.635Z,3.59
2023-01-09T01:51:40.943Z,3.53
2023-01-09T01:54:46.595Z,3.18
2023-01-09T01:57:56.780Z,3.29
2023-01-09T02:01:00.302Z,3.16
2023-01-09T02:04:05.519Z,3.08
2023-01-09T02:07:11.382Z,3.34
2023-01-09T02:10:16.839Z,3.15
2023-01-09T02:13:21.304Z,3.28
2023-01-09T02:16:39.083Z,3.17
2023-01-09T02:20:10.223Z,3.23
2023-01-09T02:23:58.456Z,3.49
2023-01-09T02:27:19.951Z,3.42
2023-01-09T02:30:33.310Z,3.33
2023-01-09T02:33:48.580Z,3.44
2023-01-09T02:36:59.994Z,3.42
2023-01-09T02:40:18.174Z,3.33
2023-01-09T02:43:22.696Z,3.27
2023-01-09T02:46:27.716Z,3.34
2023-01-09T02:49:31.977Z,3.42
2023-01-09T02:52:48.069Z,3.60
2023-01-09T02:56:07.254Z,3.43
2023-01-09T02:59:22.514Z,3.35
2023-01-09T03:02:45.132Z,3.43
2023-01-09T03:05:54.904Z,3.42
2023-01-09T03:09:03.891Z,3.45
2023-01-09T03:12:14.504Z,3.45
2023-01-09T03:15:20.287Z,3.39
2023-01-09T03:18:29.957Z,3.27
2023-01-09T03:21:34.563Z,3.47
2023-01-09T03:24:38.919Z,3.33
2023-01-09T03:27:42.229Z,3.33
2023-01-09T03:30:45.491Z,3.39
2023-01-09T03:33:50.458Z,3.51
2023-01-09T03:36:55.825Z,3.36
2023-01-09T03:39:59.187Z,3.36
2023-01-09T03:43:02.565Z,3.40
2023-01-09T03:46:06.498Z,3.35
2023-01-09T03:49:11.410Z,3.18
2023-01-09T03:52:15.606Z,3.36
2023-01-09T03:55:19.331Z,3.35
2023-01-09T03:58:23.833Z,3.37
2023-01-09T04:01:27.683Z,3.32
2023-01-09T04:04:32.924Z,3.44
2023-01-09T04:07:36.349Z,3.88
2023-01-09T04:10:39.976Z,3.35
2023-01-09T04:13:43.267Z,3.33
2023-01-09T04:16:47.895Z,3.40
2023-01-09T04:19:52.520Z,3.24
2023-01-09T04:22:56.046Z,3.39
2023-01-09T04:25:59.509Z,3.42
2023-01-09T04:29:02.834Z,3.43
2023-01-09T04:34:27.597Z,3.47
2023-01-09T04:37:31.111Z,3.43
2023-01-09T04:40:34.482Z,3.45
2023-01-09T04:43:37.772Z,3.42
2023-01-09T04:46:41.101Z,3.40
2023-01-09T04:49:45.715Z,3.39
2023-01-09T04:52:49.006Z,3.38
2023-01-09T04:55:52.360Z,3.37
2023-01-09T04:58:56.733Z,3.45
2023-01-09T05:02:00.104Z,3.35
2023-01-09T05:05:05.717Z,3.41
2023-01-09T05:08:08.917Z,3.43
2023-01-09T05:11:12.415Z,3.45
2023-01-09T05:14:15.767Z,3.33
2023-01-09T05:17:19.240Z,3.48
2023-01-09T05:20:23.879Z,3.50
2023-01-09T05:23:27.640Z,3.46
2023-01-09T05:26:31.729Z,3.50
2023-01-09T05:29:35.062Z,3.53
2023-01-09T05:32:38.271Z,3.52
2023-01-09T05:35:42.854Z,3.57
2023-01-09T05:38:46.095Z,3.57
2023-01-09T05:41:50.617Z,3.66
2023-01-09T05:44:54.868Z,3.65
2023-01-09T05:47:58.230Z,3.71
2023-01-09T05:51:02.948Z,3.80
2023-01-09T05:54:07.483Z,3.83
2023-01-09T05:57:10.738Z,4.11
2023-01-09T06:00:15.103Z,4.34
2023-01-09T06:03:18.394Z,4.21
2023-01-09T06:06:29.618Z,4.40
2023-01-09T06:09:32.888Z,4.80
2023-01-09T06:12:36.115Z,4.99
2023-01-09T06:15:41.047Z,5.06
2023-01-09T06:18:44.367Z,5.15
2023-01-09T06:21:49.420Z,5.28
2023-01-09T06:25:02.733Z,5.20
2023-01-09T06:28:15.989Z,5.37
2023-01-09T06:31:19.356Z,5.29
2023-01-09T06:34:22.796Z,5.17
2023-01-09T06:37:29.622Z,5.26
2023-01-09T06:40:33.017Z,5.20
2023-01-09T06:43:36.311Z,5.18
2023-01-09T06:46:39.850Z,5.08
2023-01-09T06:49:43.189Z,5.02
2023-01-09T06:52:48.172Z,5.03
2023-01-09T06:55:51.826Z,5.06
2023-01-09T06:58:57.275Z,5.04
2023-01-09T07:02:00.962Z,4.98
2023-01-09T07:05:07.580Z,5.07
2023-01-09T07:08:15.225Z,5.04
2023-01-09T07:11:18.631Z,5.07
2023-01-09T07:14:23.913Z,4.94
2023-01-09T07:17:29.301Z,5.09
2023-01-09T07:20:32.527Z,5.00
2023-01-09T07:23:55.917Z,4.93
2023-01-09T07:27:05.818Z,5.06
2023-01-09T07:30:20.564Z,5.04
2023-01-09T07:33:23.724Z,4.96
2023-01-09T07:36:27.205Z,5.00
2023-01-09T07:39:32.401Z,4.94
2023-01-09T07:42:35.888Z,4.94
2023-01-09T07:45:39.615Z,5.06
2023-01-09T07:48:42.876Z,5.10
2023-01-09T07:51:48.268Z,4.98
2023-01-09T07:54:53.221Z,5.07
2023-01-09T07:57:58.842Z,5.10
2023-01-09T08:01:05.819Z,5.01
2023-01-09T08:04:09.147Z,5.03
2023-01-09T08:07:12.430Z,5.02
2023-01-09T08:10:19.913Z,5.08
2023-01-09T08:13:25.264Z,5.07
2023-01-09T08:16:29.478Z,5.01
2023-01-09T08:19:32.796Z,5.14
2023-01-09T08:22:37.049Z,5.09
2023-01-09T08:25:42.412Z,5.02
2023-01-09T08:28:45.686Z,5.03
2023-01-09T08:31:48.986Z,4.95
2023-01-09T08:34:53.156Z,4.90
2023-01-09T08:37:57.074Z,4.89
2023-01-09T08:41:22.651Z,4.84
2023-01-09T08:44:48.160Z,4.92
2023-01-09T08:47:54.572Z,4.91
2023-01-09T08:51:00.163Z,5.02
2023-01-09T08:54:03.561Z,5.00
2023-01-09T08:57:08.516Z,4.92
2023-01-09T09:00:25.081Z,5.01
2023-01-09T09:03:59.309Z,4.97
2023-01-09T09:07:28.073Z,5.13
2023-01-09T09:10:58.141Z,4.99
2023-01-09T09:18:09.502Z,5.15
2023-01-09T09:21:12.684Z,5.14
2023-01-09T09:24:15.939Z,5.14
2023-01-09T09:27:19.679Z,5.29
2023-01-09T09:30:25.354Z,5.32
2023-01-09T09:33:30.339Z,5.32
2023-01-09T09:36:37.125Z,5.34
2023-01-09T09:39:46.612Z,5.46
2023-01-09T09:43:30.232Z,5.37
2023-01-09T09:46:42.951Z,5.36
2023-01-09T09:50:08.477Z,5.37
2023-01-09T09:53:22.207Z,5.34
2023-01-09T09:56:33.291Z,5.37
2023-01-09T09:59:42.226Z,5.27
2023-01-09T10:02:53.127Z,5.28
2023-01-09T10:06:01.492Z,5.15
2023-01-09T10:09:14.622Z,5.31
2023-01-09T10:12:31.359Z,5.35
2023-01-09T10:15:48.432Z,5.36
2023-01-09T10:19:03.804Z,5.39
2023-01-09T10:22:20.256Z,5.44
2023-01-09T10:25:35.173Z,5.49
2023-01-09T10:28:57.173Z,5.41
2023-01-09T10:34:46.670Z,5.46
2023-01-09T10:37:55.329Z,5.48
2023-01-09T10:41:06.334Z,5.50
2023-01-09T10:44:20.243Z,5.50
2023-01-09T10:47:30.180Z,5.54
2023-01-09T10:50:38.535Z,5.46
2023-01-09T10:53:46.668Z,5.57
2023-01-09T10:56:55.385Z,5.42
2023-01-09T11:00:01.372Z,5.49
2023-01-09T11:03:04.821Z,5.40
2023-01-09T11:06:21.292Z,5.58
2023-01-09T11:09:25.719Z,5.36
2023-01-09T11:12:30.883Z,5.40
2023-01-09T11:15:34.098Z,5.45
2023-01-09T11:18:49.108Z,5.52
2023-01-09T11:22:08.012Z,5.42
2023-01-09T11:25:17.357Z,5.39
2023-01-09T11:28:22.762Z,5.36
2023-01-09T11:31:29.034Z,5.43
2023-01-09T11:34:34.467Z,5.40
2023-01-09T11:38:06.260Z,5.41
2023-01-09T11:41:32.542Z,5.42
2023-01-09T11:45:01.620Z,5.48
2023-01-09T11:48:39.113Z,5.47
2023-01-09T11:51:47.207Z,5.40
2023-01-09T11:55:12.439Z,5.41
2023-01-09T11:58:26.362Z,5.46
2023-01-09T12:01:51.011Z,5.50
2023-01-09T12:05:19.289Z,5.57
2023-01-09T12:08:42.952Z,5.56
2023-01-09T12:11:58.242Z,5.60
2023-01-09T12:15:21.250Z,5.58
2023-01-09T12:18:53.754Z,5.54
2023-01-09T12:22:07.451Z,5.38
2023-01-09T12:25:22.981Z,5.47
2023-01-09T12:28:47.205Z,5.39
2023-01-09T12:32:09.893Z,5.55
2023-01-09T12:35:23.924Z,5.59
2023-01-09T12:38:41.863Z,5.55
2023-01-09T12:41:58.602Z,5.52
2023-01-09T12:45:29.975Z,5.69
2023-01-09T12:48:49.718Z,5.72
2023-01-09T12:52:01.292Z,5.64
2023-01-09T12:55:16.813Z,5.99
2023-01-09T12:58:34.628Z,5.91
2023-01-09T13:01:46.370Z,6.13
2023-01-09T13:04:59.021Z,6.00
2023-01-09T13:08:05.772Z,5.98
2023-01-09T13:11:35.319Z,6.00
2023-01-09T13:15:05.035Z,5.99
2023-01-09T13:18:40.994Z,5.87
2023-01-09T13:22:06.401Z,5.83
2023-01-09T13:25:41.675Z,5.75
2023-01-09T13:28:48.966Z,5.79
2023-01-09T13:32:24.219Z,5.91
2023-01-09T13:35:54.704Z,5.87
2023-01-09T13:39:02.821Z,5.82
2023-01-09T13:42:35.240Z,5.81
2023-01-09T13:45:40.934Z,5.89
2023-01-09T13:48:44.491Z,5.81
2023-01-09T13:52:05.762Z,5.71
2023-01-09T13:55:35.825Z,5.79
2023-01-09T13:59:30.469Z,5.65
2023-01-09T14:02:56.983Z,5.85
2023-01-09T14:06:25.039Z,5.91
2023-01-09T14:09:38.715Z,5.78
2023-01-09T14:12:48.664Z,5.85
2023-01-09T14:15:55.183Z,5.84
2023-01-09T14:19:18.829Z,5.74
2023-01-09T14:22:28.480Z,5.72
2023-01-09T14:25:40.508Z,5.71
2023-01-09T14:28:46.202Z,5.71
2023-01-09T14:31:54.668Z,5.66
2023-01-09T14:35:14.419Z,5.66
2023-01-09T14:38:31.406Z,5.65
2023-01-09T14:42:07.916Z,5.63
2023-01-09T14:45:19.364Z,5.58
2023-01-09T14:48:24.505Z,5.56
2023-01-09T14:51:32.621Z,5.73
2023-01-09T14:54:38.314Z,5.52
2023-01-09T14:57:42.989Z,5.02
2023-01-09T15:00:53.521Z,5.37
2023-01-09T15:04:04.055Z,4.95
2023-01-09T15:07:07.833Z,4.72
2023-01-09T15:10:17.616Z,4.26
2023-01-09T15:13:33.679Z,3.99
2023-01-09T15:16:40.539Z,3.93
2023-01-09T15:19:53.318Z,3.57
2023-01-09T15:23:00.712Z,3.66
2023-01-09T15:26:24.634Z,3.45
2023-01-09T15:29:29.814Z,3.72
2023-01-09T15:32:33.200Z,3.54
2023-01-09T15:35:39.058Z,3.53
2023-01-09T15:38:43.276Z,3.45
2023-01-09T15:42:05.138Z,3.37
2023-01-09T15:45:27.486Z,3.39
2023-01-09T15:48:32.936Z,3.39
2023-01-09T15:51:46.570Z,3.28
2023-01-09T15:54:50.052Z,3.35
2023-01-09T15:57:53.748Z,3.47
2023-01-09T16:01:04.074Z,3.46
2023-01-09T16:04:11.161Z,3.44
2023-01-09T16:07:18.984Z,3.28
2023-01-09T16:10:24.924Z,3.38
2023-01-09T16:13:31.478Z,3.41
2023-01-09T16:16:36.512Z,3.45
2023-01-09T16:20:14.379Z,3.46
2023-01-09T16:23:22.761Z,3.45
2023-01-09T16:26:28.566Z,3.44
2023-01-09T16:29:37.332Z,3.51
2023-01-09T16:34:27.349Z,3.56
2023-01-09T16:37:53.562Z,3.55
2023-01-09T16:41:36.803Z,3.60
2023-01-09T16:45:00.812Z,3.56
2023-01-09T16:48:11.120Z,3.50
2023-01-09T16:51:28.464Z,3.43
2023-01-09T16:54:32.062Z,3.41
2023-01-09T16:57:36.630Z,3.45
2023-01-09T17:00:43.444Z,3.39
2023-01-09T17:03:47.850Z,3.43
2023-01-09T17:06:52.715Z,3.21
2023-01-09T17:09:59.340Z,3.23
2023-01-09T17:13:02.631Z,3.24
2023-01-09T17:16:06.532Z,3.27
2023-01-09T17:19:17.008Z,3.11
2023-01-09T17:22:21.596Z,3.14
2023-01-09T17:25:59.263Z,3.39
2023-01-09T17:29:02.700Z,3.38
2023-01-09T17:32:06.488Z,3.11
2023-01-09T17:35:13.362Z,3.18
2023-01-09T17:38:18.074Z,3.32
2023-01-09T17:41:22.651Z,2.93
2023-01-09T17:44:26.596Z,3.02
2023-01-09T17:47:29.863Z,3.13
2023-01-09T17:50:34.745Z,2.93
2023-01-09T17:53:39.541Z,3.21
2023-01-09T17:56:49.491Z,3.19
2023-01-09T17:59:52.751Z,3.11
2023-01-09T18:02:58.776Z,3.03
2023-01-09T18:06:02.114Z,2.94
2023-01-09T18:09:08.340Z,2.73
2023-01-09T18:12:12.437Z,2.65
2023-01-09T18:15:16.062Z,2.72
2023-01-09T18:18:20.063Z,3.07
2023-01-09T18:21:25.150Z,3.03
2023-01-09T18:24:29.933Z,2.90
2023-01-09T18:27:33.484Z,2.97
2023-01-09T18:30:37.846Z,2.91
2023-01-09T18:33:41.259Z,2.97
2023-01-09T18:36:44.816Z,3.06
2023-01-09T18:39:49.686Z,3.07
2023-01-09T18:42:53.266Z,3.25
2023-01-09T18:45:59.897Z,3.15
2023-01-09T18:49:05.521Z,3.12
2023-01-09T18:52:09.079Z,3.20
2023-01-09T18:55:13.833Z,2.99
2023-01-09T18:58:17.106Z,3.05
2023-01-09T19:01:20.563Z,3.18
2023-01-09T19:04:24.129Z,3.81
2023-01-09T19:07:27.986Z,3.34
2023-01-09T19:10:32.981Z,3.21
2023-01-09T19:13:38.499Z,2.78
2023-01-09T19:16:42.628Z,3.01
2023-01-09T19:19:46.206Z,2.99
2023-01-09T19:22:49.498Z,3.05
2023-01-09T19:25:55.584Z,2.82
2023-01-09T19:28:59.217Z,3.02
2023-01-09T19:32:04.572Z,3.35
2023-01-09T19:35:08.387Z,2.71
2023-01-09T19:38:11.699Z,2.83
2023-01-09T19:41:19.512Z,2.30
2023-01-09T19:44:23.235Z,2.64
2023-01-09T19:47:47.402Z,2.55
2023-01-09T19:50:51.061Z,2.50
2023-01-09T19:54:14.386Z,2.53
2023-01-09T19:57:38.983Z,2.47
2023-01-09T20:00:42.314Z,2.46
2023-01-09T20:03:48.025Z,2.58
2023-01-09T20:07:11.186Z,2.66
2023-01-09T20:10:34.760Z,2.64
2023-01-09T20:14:00.474Z,2.62
2023-01-09T20:17:23.585Z,2.76
2023-01-09T20:20:50.176Z,2.84
2023-01-09T20:23:55.476Z,2.88
2023-01-09T20:26:58.841Z,2.97
2023-01-09T20:30:06.555Z,3.15
2023-01-09T20:33:13.063Z,3.07
2023-01-09T20:36:16.828Z,3.15
2023-01-09T20:39:20.335Z,2.73
2023-01-09T20:42:23.949Z,3.13
2023-01-09T20:45:29.911Z,3.20
2023-01-09T20:48:33.420Z,3.05
2023-01-09T20:51:38.133Z,3.33
2023-01-09T20:54:46.115Z,3.35
2023-01-09T20:58:09.833Z,3.40
2023-01-09T21:01:15.415Z,3.44
2023-01-09T21:04:19.067Z,3.65
2023-01-09T21:07:24.365Z,3.68
2023-01-09T21:10:28.263Z,3.67
2023-01-09T21:13:31.986Z,3.74
2023-01-09T21:16:36.949Z,3.68
2023-01-09T21:19:40.315Z,3.74
2023-01-09T21:22:43.911Z,3.85
2023-01-09T21:25:49.075Z,3.75
2023-01-09T21:28:55.270Z,3.73
2023-01-09T21:32:03.973Z,3.78
2023-01-09T21:35:28.146Z,3.73
2023-01-09T21:38:53.429Z,3.78
2023-01-09T21:42:33.845Z,3.56
2023-01-09T21:46:14.482Z,3.52
2023-01-09T21:49:19.716Z,3.66
2023-01-09T21:52:22.949Z,3.68
2023-01-09T21:55:26.847Z,3.68
2023-01-09T21:58:30.454Z,3.75
2023-01-09T22:01:34.102Z,3.65
2023-01-09T22:04:40.191Z,3.74
2023-01-09T22:07:43.487Z,3.69
2023-01-09T22:10:54.212Z,3.70
2023-01-09T22:14:00.343Z,3.73
2023-01-09T22:17:03.848Z,3.66
2023-01-09T22:20:11.417Z,3.37
2023-01-09T22:23:15.453Z,3.64
2023-01-09T22:26:19.289Z,3.44
2023-01-09T22:29:25.307Z,3.65
2023-01-09T22:34:27.850Z,3.28
2023-01-09T22:37:31.194Z,3.66
2023-01-09T22:40:34.496Z,3.56
2023-01-09T22:43:38.036Z,3.35
2023-01-09T22:46:41.634Z,3.48
2023-01-09T22:49:52.877Z,3.48
2023-01-09T22:53:16.538Z,3.39
2023-01-09T22:56:40.029Z,3.39
2023-01-09T23:00:03.401Z,3.49
2023-01-09T23:03:27.730Z,3.47
2023-01-09T23:06:32.635Z,3.55
2023-01-09T23:09:35.953Z,3.59
2023-01-09T23:12:39.393Z,3.53
2023-01-09T23:16:02.864Z,3.52
2023-01-09T23:19:25.973Z,3.50
2023-01-09T23:22:50.421Z,3.44
2023-01-09T23:26:13.497Z,3.44
2023-01-09T23:29:38.531Z,3.48
2023-01-09T23:32:44.402Z,3.35
2023-01-09T23:35:48.659Z,3.79
2023-01-09T23:38:53.570Z,3.44
2023-01-09T23:42:16.476Z,3.36
2023-01-09T23:45:19.716Z,3.41
2023-01-09T23:48:22.981Z,3.81
2023-01-09T23:51:28.370Z,3.43
2023-01-09T23:54:33.010Z,3.48
2023-01-09T23:57:36.754Z,3.34
